Terminal Aerodrome Forecast
Issued by NWS Jackson, KY

Home | Current Version | Previous Version | Text Only | Print | Product List | Glossary On
Versions: 1 2 3 4 5 6 7 8 9 10 11 12 13 14 15 16 17 18 19 20 21
000
FTUS43 KJKL 031738
TAFLOZ
TAF
KLOZ 031738Z 0318/0418 VRB03KT P6SM OVC015
     FM031900 VRB03KT P6SM BKN022
     FM032000 VRB03KT P6SM SCT025 OVC050
     FM032200 VRB03KT P6SM VCTS SCT030CB BKN050
     FM040400 VRB03KT 5SM BR BKN012
     FM040800 00000KT 1/2SM FG BKN004
     FM041500 VRB03KT P6SM BKN008=

USA.gov is the U.S. government's official web portal to all federal, state and local government web resources and services.